Terminal Aerodrome Forecast
Issued by NWS Jackson, MS

Home | Current Version | Previous Version | Text Only | Print | Product List | Glossary On
Versions: 1 2 3 4 5 6 7 8 9 10 11 12 13 14 15 16 17 18
000
FTUS44 KJAN 191723
TAFMEI
TAF
KMEI 191723Z 1918/2018 27009KT P6SM SCT030
     FM200400 20009KT P6SM VCTS BKN035CB OVC090
     FM200800 22009KT P6SM OVC025
     FM201100 23008KT 3SM BR OVC015
     FM201600 28009G15KT P6SM OVC025=

USA.gov is the U.S. government's official web portal to all federal, state and local government web resources and services.